createdAt,value
2017-07-05T00:00:17.880Z,979.3
2017-07-05T00:01:19.244Z,979.3
2017-07-05T00:02:20.611Z,979.3
2017-07-05T00:03:21.975Z,979.3
2017-07-05T00:04:23.359Z,979.3
2017-07-05T00:05:24.728Z,979.3
2017-07-05T00:06:26.095Z,979.3
2017-07-05T00:07:27.479Z,979.3
2017-07-05T00:08:28.878Z,979.3
2017-07-05T00:09:30.258Z,979.3
2017-07-05T00:10:31.605Z,979.3
2017-07-05T00:11:32.981Z,979.3
2017-07-05T00:12:34.346Z,979.3
2017-07-05T00:13:35.728Z,979.3
2017-07-05T00:14:37.089Z,979.2
2017-07-05T00:15:38.467Z,979.2
2017-07-05T00:16:39.883Z,979.2
2017-07-05T00:17:41.250Z,979.2
2017-07-05T00:18:42.612Z,979.2
2017-07-05T00:19:43.986Z,979.2
2017-07-05T00:20:45.350Z,979.2
2017-07-05T00:21:46.731Z,979.2
2017-07-05T00:22:48.126Z,979.2
2017-07-05T00:23:49.495Z,979.3
2017-07-05T00:24:50.853Z,979.3
2017-07-05T00:25:52.227Z,979.3
2017-07-05T00:26:53.590Z,979.2
2017-07-05T00:27:54.965Z,979.3
2017-07-05T00:28:56.325Z,979.2
2017-07-05T00:29:57.702Z,979.2
2017-07-05T00:30:59.100Z,979.2
2017-07-05T00:32:00.466Z,979.3
2017-07-05T00:33:01.831Z,979.2
2017-07-05T00:34:03.198Z,979.3
2017-07-05T00:35:04.574Z,979.3
2017-07-05T00:36:05.948Z,979.2
2017-07-05T00:37:07.326Z,979.2
2017-07-05T00:38:08.691Z,979.2
2017-07-05T00:39:10.057Z,979.3
2017-07-05T00:40:11.425Z,979.3
2017-07-05T00:41:12.789Z,979.3
2017-07-05T00:42:14.157Z,979.2
2017-07-05T00:43:15.532Z,979.2
2017-07-05T00:44:16.915Z,979.2
2017-07-05T00:45:18.296Z,979.2
2017-07-05T00:46:19.672Z,979.2
2017-07-05T00:47:21.036Z,979.2
2017-07-05T00:48:22.406Z,979.2
2017-07-05T00:49:23.775Z,979.2
2017-07-05T00:50:25.137Z,979.2
2017-07-05T00:51:26.517Z,979.2
2017-07-05T00:52:27.909Z,979.2
2017-07-05T00:53:29.290Z,979.2
2017-07-05T00:54:30.693Z,979.2
2017-07-05T00:55:32.054Z,979.3
2017-07-05T00:56:33.433Z,979.2
2017-07-05T00:57:34.809Z,979.2
2017-07-05T00:58:36.174Z,979.2
2017-07-05T00:59:37.567Z,979.2
2017-07-05T01:00:38.924Z,979.2
2017-07-05T01:01:40.293Z,979.2
2017-07-05T01:02:41.665Z,979.2
2017-07-05T01:03:43.045Z,979.2
2017-07-05T01:04:44.403Z,979.2
2017-07-05T01:05:45.787Z,979.3
2017-07-05T01:06:47.168Z,979.3
2017-07-05T01:07:48.534Z,979.3
2017-07-05T01:08:49.919Z,979.3
2017-07-05T01:09:51.281Z,979.3
2017-07-05T01:10:52.650Z,979.3
2017-07-05T01:11:54.045Z,979.3
2017-07-05T01:12:55.410Z,979.3
2017-07-05T01:13:56.777Z,979.3
2017-07-05T01:14:58.158Z,979.3
2017-07-05T01:15:59.522Z,979.3
2017-07-05T01:17:00.886Z,979.3
2017-07-05T01:18:02.266Z,979.3
2017-07-05T01:19:03.632Z,979.3
2017-07-05T01:20:04.994Z,979.3
2017-07-05T01:21:06.372Z,979.2
2017-07-05T01:22:07.762Z,979.3
2017-07-05T01:23:09.144Z,979.2
2017-07-05T01:24:10.507Z,979.2
2017-07-05T01:25:11.875Z,979.2
2017-07-05T01:26:13.246Z,979.2
2017-07-05T01:27:14.667Z,979.2
2017-07-05T01:28:15.980Z,979.2
2017-07-05T01:29:17.348Z,979.2
2017-07-05T01:30:18.714Z,979.2
2017-07-05T01:31:20.077Z,979.2
2017-07-05T01:33:07.476Z,979.2
2017-07-05T01:34:08.860Z,979.2
2017-07-05T01:35:10.241Z,979.1
2017-07-05T01:36:11.607Z,979.1
2017-07-05T01:37:12.972Z,979.1
2017-07-05T01:38:14.347Z,979.1
2017-07-05T01:39:15.733Z,979.1
2017-07-05T01:40:17.106Z,979.0
2017-07-05T01:41:18.477Z,979.0
2017-07-05T01:42:19.845Z,979.0
2017-07-05T01:43:21.212Z,979.0
2017-07-05T01:44:22.582Z,979.0
2017-07-05T01:45:23.970Z,979.0
2017-07-05T01:46:25.339Z,979.0
2017-07-05T01:47:26.711Z,979.0
2017-07-05T01:48:28.082Z,979.0
2017-07-05T01:49:29.448Z,979.0
2017-07-05T01:50:30.815Z,979.0
2017-07-05T01:51:32.185Z,979.0
2017-07-05T01:52:33.556Z,979.0
2017-07-05T01:53:34.943Z,979.0
2017-07-05T01:54:36.319Z,978.9
2017-07-05T01:55:37.690Z,979.0
2017-07-05T01:56:39.059Z,979.0
2017-07-05T01:57:40.434Z,978.9
2017-07-05T01:58:41.800Z,979.0
2017-07-05T01:59:43.174Z,979.0
2017-07-05T02:00:44.557Z,979.0
2017-07-05T02:01:45.930Z,979.0
2017-07-05T02:02:47.296Z,979.0
2017-07-05T02:03:48.660Z,979.0
2017-07-05T02:04:50.027Z,979.0
2017-07-05T02:05:51.389Z,979.0
2017-07-05T02:06:52.769Z,979.0
2017-07-05T02:07:54.127Z,979.0
2017-07-05T02:08:55.506Z,978.9
2017-07-05T02:09:56.872Z,978.9
2017-07-05T02:10:58.232Z,979.0
2017-07-05T02:11:59.615Z,979.0
2017-07-05T02:13:00.958Z,979.0
2017-07-05T02:14:02.322Z,979.0
2017-07-05T02:15:03.687Z,978.9
2017-07-05T02:16:05.052Z,978.9
2017-07-05T02:17:06.416Z,978.9
2017-07-05T02:18:07.782Z,978.9
2017-07-05T02:19:09.142Z,978.9
2017-07-05T02:20:10.509Z,978.9
2017-07-05T02:21:11.872Z,978.9
2017-07-05T02:22:13.250Z,978.9
2017-07-05T02:23:14.610Z,978.9
2017-07-05T02:24:15.987Z,978.9
2017-07-05T02:25:17.353Z,978.9
2017-07-05T02:26:18.717Z,978.9
2017-07-05T02:27:20.082Z,978.9
2017-07-05T02:28:21.448Z,978.9
2017-07-05T02:29:22.828Z,978.9
2017-07-05T02:30:24.191Z,978.9
2017-07-05T02:31:25.559Z,978.9
2017-07-05T02:32:26.924Z,978.9
2017-07-05T02:33:28.292Z,978.9
2017-07-05T02:34:29.655Z,978.9
2017-07-05T02:35:31.021Z,978.9
2017-07-05T02:36:32.387Z,978.9
2017-07-05T02:37:33.753Z,978.9
2017-07-05T02:38:35.162Z,978.8
2017-07-05T02:39:36.525Z,978.8
2017-07-05T02:40:37.890Z,978.8
2017-07-05T02:41:39.265Z,978.8
2017-07-05T02:42:40.628Z,978.8
2017-07-05T02:43:41.992Z,978.8
2017-07-05T02:44:43.362Z,978.8
2017-07-05T02:45:44.724Z,978.8
2017-07-05T02:46:46.089Z,978.8
2017-07-05T02:47:47.452Z,978.8
2017-07-05T02:48:48.816Z,978.8
2017-07-05T02:49:50.178Z,978.8
2017-07-05T02:50:51.544Z,978.8
2017-07-05T02:51:52.907Z,978.8
2017-07-05T02:52:54.271Z,978.8
2017-07-05T02:53:55.634Z,978.7
2017-07-05T02:54:57.005Z,978.7
2017-07-05T02:55:58.364Z,978.7
2017-07-05T02:56:59.727Z,978.7
2017-07-05T02:58:01.093Z,978.7
2017-07-05T02:59:02.458Z,978.7
2017-07-05T03:00:03.820Z,978.7
2017-07-05T03:01:05.198Z,978.7
2017-07-05T03:02:06.562Z,978.7
2017-07-05T03:03:07.925Z,978.7
2017-07-05T03:04:09.290Z,978.7
2017-07-05T03:05:10.656Z,978.6
2017-07-05T03:06:12.018Z,978.6
2017-07-05T03:07:13.382Z,978.7
2017-07-05T03:08:14.785Z,978.7
2017-07-05T03:09:16.162Z,978.7
2017-07-05T03:10:17.514Z,978.6
2017-07-05T03:11:19.140Z,978.6
2017-07-05T03:12:20.505Z,978.7
2017-07-05T03:13:21.871Z,978.7
2017-07-05T03:14:23.236Z,978.7
2017-07-05T03:15:24.599Z,978.7
2017-07-05T03:16:25.962Z,978.6
2017-07-05T03:17:27.325Z,978.7
2017-07-05T03:18:28.696Z,978.6
2017-07-05T03:19:30.056Z,978.6
2017-07-05T03:20:31.429Z,978.7
2017-07-05T03:21:32.816Z,978.6
2017-07-05T03:22:34.175Z,978.7
2017-07-05T03:23:35.537Z,978.7
2017-07-05T03:24:36.905Z,978.7
2017-07-05T03:25:38.441Z,978.7
2017-07-05T03:26:39.806Z,978.7
2017-07-05T03:27:41.174Z,978.7
2017-07-05T03:28:42.537Z,978.6
2017-07-05T03:29:43.900Z,978.6
2017-07-05T03:30:45.295Z,978.6
2017-07-05T03:31:46.656Z,978.6
2017-07-05T03:32:48.022Z,978.6
2017-07-05T03:33:49.569Z,978.6
2017-07-05T03:34:50.937Z,978.6
2017-07-05T03:35:52.300Z,978.6
2017-07-05T03:36:53.666Z,978.6
2017-07-05T03:37:55.031Z,978.5
2017-07-05T03:38:56.398Z,978.5
2017-07-05T03:39:57.769Z,978.5
2017-07-05T03:40:59.133Z,978.5
2017-07-05T03:42:00.501Z,978.5
2017-07-05T03:43:01.867Z,978.5
2017-07-05T03:44:03.234Z,978.5
2017-07-05T03:45:04.604Z,978.5
2017-07-05T03:46:05.969Z,978.5
2017-07-05T03:47:07.334Z,978.5
2017-07-05T03:48:08.695Z,978.5
2017-07-05T03:49:10.073Z,978.5
2017-07-05T03:50:11.433Z,978.5
2017-07-05T03:51:12.798Z,978.5
2017-07-05T03:52:14.162Z,978.6
2017-07-05T03:53:15.528Z,978.5
2017-07-05T03:54:16.897Z,978.5
2017-07-05T03:55:18.259Z,978.5
2017-07-05T03:56:19.619Z,978.5
2017-07-05T03:57:20.991Z,978.6
2017-07-05T03:58:22.356Z,978.6
2017-07-05T03:59:23.720Z,978.5
2017-07-05T04:00:25.088Z,978.6
2017-07-05T04:01:26.459Z,978.6
2017-07-05T04:02:27.827Z,978.6
2017-07-05T04:03:29.197Z,978.6
2017-07-05T04:04:30.559Z,978.5
2017-07-05T04:05:31.925Z,978.5
2017-07-05T04:06:33.310Z,978.6
2017-07-05T04:07:34.678Z,978.6
2017-07-05T04:08:36.044Z,978.6
2017-07-05T04:09:37.413Z,978.6
2017-07-05T04:10:38.802Z,978.5
2017-07-05T04:11:40.174Z,978.6
2017-07-05T04:12:41.540Z,978.6
2017-07-05T04:13:42.907Z,978.5
2017-07-05T04:14:44.274Z,978.6
2017-07-05T04:15:45.638Z,978.5
2017-07-05T04:16:47.001Z,978.5
2017-07-05T04:17:48.376Z,978.5
2017-07-05T04:18:49.750Z,978.5
2017-07-05T04:19:51.115Z,978.6
2017-07-05T04:20:52.481Z,978.6
2017-07-05T04:21:53.854Z,978.6
2017-07-05T04:22:55.224Z,978.6
2017-07-05T04:23:56.607Z,978.6
2017-07-05T04:24:57.974Z,978.5
2017-07-05T04:25:59.342Z,978.5
2017-07-05T04:27:00.715Z,978.5
2017-07-05T04:28:02.087Z,978.5
2017-07-05T04:29:03.456Z,978.5
2017-07-05T04:30:04.823Z,978.5
2017-07-05T04:31:06.211Z,978.5
2017-07-05T04:32:07.583Z,978.5
2017-07-05T04:33:08.947Z,978.6
2017-07-05T04:34:10.312Z,978.5
2017-07-05T04:35:11.679Z,978.6
2017-07-05T04:36:13.046Z,978.6
2017-07-05T04:37:14.512Z,978.6
2017-07-05T04:38:15.882Z,978.6
2017-07-05T04:39:17.246Z,978.6
2017-07-05T04:40:18.609Z,978.6
2017-07-05T04:41:19.991Z,978.6
2017-07-05T04:42:21.343Z,978.6
2017-07-05T04:43:22.741Z,978.6
2017-07-05T04:44:24.108Z,978.6
2017-07-05T04:45:25.471Z,978.6
2017-07-05T04:46:26.839Z,978.6
2017-07-05T04:47:28.218Z,978.6
2017-07-05T04:48:29.595Z,978.6
2017-07-05T04:49:30.955Z,978.6
2017-07-05T04:50:32.322Z,978.6
2017-07-05T04:51:33.718Z,978.6
2017-07-05T04:52:35.085Z,978.6
2017-07-05T04:53:36.454Z,978.6
2017-07-05T04:54:37.816Z,978.6
2017-07-05T04:55:39.181Z,978.7
2017-07-05T04:56:40.561Z,978.6
2017-07-05T04:57:41.944Z,978.7
2017-07-05T04:58:43.351Z,978.6
2017-07-05T04:59:44.719Z,978.7
2017-07-05T05:00:46.126Z,978.6
2017-07-05T05:01:47.484Z,978.7
2017-07-05T05:02:48.859Z,978.7
2017-07-05T05:03:50.229Z,978.7
2017-07-05T05:04:51.602Z,978.7
2017-07-05T05:05:52.958Z,978.7
2017-07-05T05:06:54.353Z,978.6
2017-07-05T05:07:55.705Z,978.7
2017-07-05T05:08:57.085Z,978.7
2017-07-05T05:09:58.483Z,978.7
2017-07-05T05:10:59.851Z,978.7
2017-07-05T05:12:01.211Z,978.7
2017-07-05T05:13:02.589Z,978.7
2017-07-05T05:14:03.985Z,978.7
2017-07-05T05:15:05.371Z,978.7
2017-07-05T05:16:06.722Z,978.7
2017-07-05T05:17:08.088Z,978.7
2017-07-05T05:18:09.474Z,978.7
2017-07-05T05:19:10.839Z,978.7
2017-07-05T05:20:12.205Z,978.7
2017-07-05T05:21:13.577Z,978.7
2017-07-05T05:22:15.013Z,978.7
2017-07-05T05:23:16.307Z,978.7
2017-07-05T05:24:17.670Z,978.8
2017-07-05T05:25:19.035Z,978.8
2017-07-05T05:26:20.410Z,978.7
2017-07-05T05:27:21.772Z,978.8
2017-07-05T05:28:23.142Z,978.8
2017-07-05T05:29:24.510Z,978.9
2017-07-05T05:30:25.875Z,978.8
2017-07-05T05:31:27.290Z,978.8
2017-07-05T05:32:28.652Z,978.8
2017-07-05T05:33:30.018Z,978.8
2017-07-05T05:34:31.378Z,978.8
2017-07-05T05:35:32.768Z,978.8
2017-07-05T05:36:34.140Z,978.8
2017-07-05T05:37:35.515Z,978.9
2017-07-05T05:38:37.144Z,978.9
2017-07-05T05:39:38.508Z,978.8
2017-07-05T05:40:39.875Z,978.9
2017-07-05T05:41:41.247Z,978.9
2017-07-05T05:42:42.614Z,978.9
2017-07-05T05:43:44.047Z,978.8
2017-07-05T05:44:45.403Z,978.8
2017-07-05T05:45:46.770Z,978.9
2017-07-05T05:46:48.140Z,978.9
2017-07-05T05:47:49.501Z,978.9
2017-07-05T05:48:50.874Z,978.9
2017-07-05T05:49:52.239Z,978.9
2017-07-05T05:50:53.604Z,978.9
2017-07-05T05:51:54.975Z,978.9
2017-07-05T05:52:56.341Z,978.9
2017-07-05T05:53:57.709Z,978.9
2017-07-05T05:54:59.100Z,978.9
2017-07-05T05:56:00.465Z,978.9
2017-07-05T05:57:01.901Z,978.9
2017-07-05T05:58:03.335Z,978.9
2017-07-05T05:59:04.789Z,979.0
2017-07-05T06:00:06.245Z,979.0
2017-07-05T06:01:07.624Z,978.9
2017-07-05T06:02:09.003Z,979.0
2017-07-05T06:03:10.400Z,979.0
2017-07-05T06:04:11.838Z,978.9
2017-07-05T06:05:13.228Z,978.9
2017-07-05T06:06:14.666Z,979.0
2017-07-05T06:07:16.148Z,979.0
2017-07-05T06:08:17.531Z,979.0
2017-07-05T06:09:18.943Z,979.0
2017-07-05T06:10:20.356Z,979.0
2017-07-05T06:11:21.765Z,979.0
2017-07-05T06:12:23.150Z,979.0
2017-07-05T06:13:24.541Z,979.0
2017-07-05T06:14:25.902Z,979.0
2017-07-05T06:15:27.322Z,978.9
2017-07-05T06:16:28.720Z,978.9
2017-07-05T06:17:30.078Z,978.9
2017-07-05T06:18:31.455Z,978.9
2017-07-05T06:19:32.867Z,979.0
2017-07-05T06:20:34.352Z,979.0
2017-07-05T06:21:35.748Z,979.0
2017-07-05T06:22:37.202Z,979.0
2017-07-05T06:23:38.577Z,978.9
2017-07-05T06:24:39.955Z,978.9
2017-07-05T06:25:41.351Z,979.0
2017-07-05T06:26:42.738Z,979.0
2017-07-05T06:27:44.168Z,979.0
2017-07-05T06:28:45.583Z,979.0
2017-07-05T06:29:46.957Z,979.0
2017-07-05T06:30:48.340Z,979.0
2017-07-05T06:31:49.723Z,979.0
2017-07-05T06:32:51.093Z,979.0
2017-07-05T06:33:52.518Z,979.0
2017-07-05T06:34:53.895Z,979.0
2017-07-05T06:35:55.286Z,979.1
2017-07-05T06:36:56.687Z,979.1
2017-07-05T06:37:58.246Z,979.1
2017-07-05T06:38:59.668Z,979.1
2017-07-05T06:40:01.070Z,979.1
2017-07-05T06:41:02.443Z,979.1
2017-07-05T06:42:03.819Z,979.2
2017-07-05T06:43:05.189Z,979.2
2017-07-05T06:44:06.564Z,979.1
2017-07-05T06:45:07.925Z,979.2
2017-07-05T06:46:09.325Z,979.2
2017-07-05T06:47:10.717Z,979.1
2017-07-05T06:48:12.108Z,979.2
2017-07-05T06:49:13.475Z,979.2
2017-07-05T06:50:14.880Z,979.1
2017-07-05T06:51:17.373Z,979.2
2017-07-05T06:52:18.743Z,979.2
2017-07-05T06:53:20.121Z,979.2
2017-07-05T06:54:21.553Z,979.1
2017-07-05T06:55:22.938Z,979.2
2017-07-05T06:56:24.331Z,979.1
2017-07-05T06:57:25.744Z,979.2
2017-07-05T06:58:27.125Z,979.2
2017-07-05T06:59:28.495Z,979.2
2017-07-05T07:00:29.868Z,979.2
2017-07-05T07:01:31.271Z,979.2
2017-07-05T07:02:33.196Z,979.2
2017-07-05T07:03:34.501Z,979.1
2017-07-05T07:04:35.902Z,979.1
2017-07-05T07:05:37.345Z,979.2
2017-07-05T07:06:38.698Z,979.2
2017-07-05T07:07:40.076Z,979.2
2017-07-05T07:08:41.459Z,979.2
2017-07-05T07:09:42.915Z,979.2
2017-07-05T07:10:44.324Z,979.2
2017-07-05T07:11:45.821Z,979.2
2017-07-05T07:12:47.222Z,979.2
2017-07-05T07:13:48.604Z,979.1
2017-07-05T07:14:50.039Z,979.2
2017-07-05T07:15:51.418Z,979.2
2017-07-05T07:16:52.790Z,979.1
2017-07-05T07:17:54.179Z,979.2
2017-07-05T07:18:55.551Z,979.1
2017-07-05T07:19:56.928Z,979.2
2017-07-05T07:20:58.316Z,979.1
2017-07-05T07:21:59.686Z,979.1
2017-07-05T07:23:01.065Z,979.1
2017-07-05T07:24:02.434Z,979.1
2017-07-05T07:25:03.829Z,979.1
2017-07-05T07:26:05.201Z,979.2
2017-07-05T07:27:06.575Z,979.1
2017-07-05T07:28:07.960Z,979.2
2017-07-05T07:29:09.343Z,979.2
2017-07-05T07:30:10.725Z,979.1
2017-07-05T07:31:12.126Z,979.2
2017-07-05T07:32:13.513Z,979.1
2017-07-05T07:33:14.873Z,979.2
2017-07-05T07:34:16.245Z,979.1
2017-07-05T07:35:17.618Z,979.1
2017-07-05T07:36:18.989Z,979.1
2017-07-05T07:37:20.377Z,979.1
2017-07-05T07:38:21.777Z,979.1
2017-07-05T07:39:23.170Z,979.1
2017-07-05T07:40:24.555Z,979.1
2017-07-05T07:41:25.946Z,979.1
2017-07-05T07:42:27.319Z,979.1
2017-07-05T07:43:28.716Z,979.2
2017-07-05T07:44:30.097Z,979.1
2017-07-05T07:45:31.474Z,979.1
2017-07-05T07:46:32.848Z,979.2
2017-07-05T07:47:34.260Z,979.2
2017-07-05T07:48:35.633Z,979.2
2017-07-05T07:49:37.027Z,979.2
2017-07-05T07:50:38.413Z,979.2
2017-07-05T07:51:39.784Z,979.2
2017-07-05T07:52:41.178Z,979.2
2017-07-05T07:53:42.546Z,979.2
2017-07-05T07:54:43.913Z,979.2
2017-07-05T07:55:45.294Z,979.2
2017-07-05T07:56:46.685Z,979.2
2017-07-05T07:57:48.070Z,979.2
2017-07-05T07:58:49.443Z,979.2
2017-07-05T07:59:50.813Z,979.2
2017-07-05T08:00:52.175Z,979.3
2017-07-05T08:01:53.552Z,979.3
2017-07-05T08:02:54.920Z,979.3
2017-07-05T08:03:56.291Z,979.3
2017-07-05T08:04:57.662Z,979.3
2017-07-05T08:05:59.033Z,979.3
2017-07-05T08:07:00.403Z,979.3
2017-07-05T08:08:01.783Z,979.3
2017-07-05T08:09:03.170Z,979.3
2017-07-05T08:10:04.583Z,979.3
2017-07-05T08:11:05.905Z,979.3
2017-07-05T08:12:07.305Z,979.3
2017-07-05T08:13:08.677Z,979.4
2017-07-05T08:14:10.045Z,979.4
2017-07-05T08:15:11.421Z,979.3
2017-07-05T08:16:12.806Z,979.4
2017-07-05T08:17:14.178Z,979.3
2017-07-05T08:18:15.562Z,979.3
2017-07-05T08:19:16.942Z,979.3
2017-07-05T08:20:18.344Z,979.4
2017-07-05T08:21:19.750Z,979.4
2017-07-05T08:22:21.138Z,979.4
2017-07-05T08:23:22.539Z,979.4
2017-07-05T08:24:23.942Z,979.4
2017-07-05T08:25:25.311Z,979.4
2017-07-05T08:26:26.693Z,979.4
2017-07-05T08:27:28.075Z,979.4
2017-07-05T08:28:29.461Z,979.4
2017-07-05T08:29:31.248Z,979.4
2017-07-05T08:30:32.575Z,979.5
2017-07-05T08:31:33.958Z,979.5
2017-07-05T08:32:35.352Z,979.5
2017-07-05T08:33:36.758Z,979.5
2017-07-05T08:34:38.135Z,979.5
2017-07-05T08:35:39.685Z,979.5
2017-07-05T08:36:41.074Z,979.5
2017-07-05T08:37:42.468Z,979.6
2017-07-05T08:38:43.855Z,979.6
2017-07-05T08:39:45.243Z,979.6
2017-07-05T08:40:46.610Z,979.6
2017-07-05T08:41:48.025Z,979.6
2017-07-05T08:42:49.394Z,979.5
2017-07-05T08:43:50.793Z,979.6
2017-07-05T08:44:52.165Z,979.5
2017-07-05T08:45:53.548Z,979.5
2017-07-05T08:46:54.922Z,979.5
2017-07-05T08:47:56.293Z,979.5
2017-07-05T08:48:57.685Z,979.5
2017-07-05T08:49:59.069Z,979.6
2017-07-05T08:51:00.439Z,979.6
2017-07-05T08:52:01.830Z,979.5
2017-07-05T08:53:03.198Z,979.6
2017-07-05T08:54:04.581Z,979.6
2017-07-05T08:55:05.951Z,979.6
2017-07-05T08:56:07.323Z,979.6
2017-07-05T08:57:08.701Z,979.5
2017-07-05T08:58:10.102Z,979.5
2017-07-05T08:59:11.485Z,979.5
2017-07-05T09:00:12.867Z,979.5
2017-07-05T09:01:14.243Z,979.5
2017-07-05T09:02:15.621Z,979.5
2017-07-05T09:03:16.988Z,979.6
2017-07-05T09:04:18.379Z,979.4
2017-07-05T09:05:19.749Z,979.5
2017-07-05T09:06:21.116Z,979.5
2017-07-05T09:07:23.624Z,979.5
2017-07-05T09:08:25.045Z,979.6
2017-07-05T09:09:26.369Z,979.5
2017-07-05T09:10:27.746Z,979.5
2017-07-05T09:11:29.678Z,979.6
2017-07-05T09:12:31.044Z,979.5
2017-07-05T09:13:32.413Z,979.6
2017-07-05T09:14:33.799Z,979.5
2017-07-05T09:15:35.182Z,979.5
2017-07-05T09:16:36.563Z,979.5
2017-07-05T09:17:37.933Z,979.5
2017-07-05T09:18:39.432Z,979.5
2017-07-05T09:19:40.803Z,979.5
2017-07-05T09:20:42.173Z,979.5
2017-07-05T09:21:43.555Z,979.5
2017-07-05T09:22:44.920Z,979.5
2017-07-05T09:23:46.320Z,979.5
2017-07-05T09:24:47.753Z,979.5
2017-07-05T09:25:49.105Z,979.5
2017-07-05T09:26:50.476Z,979.5
2017-07-05T09:27:51.859Z,979.6
2017-07-05T09:28:53.210Z,979.5
2017-07-05T09:29:54.592Z,979.5
2017-07-05T09:30:55.961Z,979.5
2017-07-05T09:31:57.328Z,979.5
2017-07-05T09:32:58.704Z,979.6
2017-07-05T09:34:00.071Z,979.5
2017-07-05T09:35:01.437Z,979.5
2017-07-05T09:36:02.823Z,979.5
2017-07-05T09:37:04.207Z,979.5
2017-07-05T09:38:05.574Z,979.6
2017-07-05T09:39:06.943Z,979.7
2017-07-05T09:40:08.320Z,979.6
2017-07-05T09:41:09.703Z,979.6
2017-07-05T09:42:11.091Z,979.7
2017-07-05T09:43:12.457Z,979.7
2017-07-05T09:44:13.830Z,979.6
2017-07-05T09:45:15.197Z,979.6
2017-07-05T09:46:16.570Z,979.7
2017-07-05T09:47:17.944Z,979.7
2017-07-05T09:48:19.313Z,979.7
2017-07-05T09:49:20.690Z,979.7
2017-07-05T09:50:22.061Z,979.7
2017-07-05T09:51:23.429Z,979.6
2017-07-05T09:52:24.799Z,979.7
2017-07-05T09:53:26.178Z,979.6
2017-07-05T09:54:27.576Z,979.6
2017-07-05T09:55:28.957Z,979.6
2017-07-05T09:56:30.330Z,979.6
2017-07-05T09:57:31.701Z,979.6
2017-07-05T09:58:33.075Z,979.7
2017-07-05T09:59:34.472Z,979.7
2017-07-05T10:00:36.241Z,979.6
2017-07-05T10:01:37.674Z,979.7
2017-07-05T10:02:39.042Z,979.6
2017-07-05T10:03:40.505Z,979.6
2017-07-05T10:04:41.885Z,979.6
2017-07-05T10:05:43.268Z,979.6
2017-07-05T10:06:44.635Z,979.6
2017-07-05T10:07:46.006Z,979.6
2017-07-05T10:08:47.401Z,979.7
2017-07-05T10:09:48.779Z,979.7
2017-07-05T10:10:50.146Z,979.6
2017-07-05T10:11:51.532Z,979.6
2017-07-05T10:12:52.954Z,979.6
2017-07-05T10:13:54.383Z,979.6
2017-07-05T10:14:55.790Z,979.5
2017-07-05T10:15:57.186Z,979.6
2017-07-05T10:16:58.548Z,979.6
2017-07-05T10:18:00.061Z,979.6
2017-07-05T10:19:01.617Z,979.5
2017-07-05T10:20:03.013Z,979.5
2017-07-05T10:21:04.382Z,979.5
2017-07-05T10:22:05.776Z,979.6
2017-07-05T10:23:07.148Z,979.5
2017-07-05T10:24:09.586Z,979.5
2017-07-05T10:25:11.071Z,979.4
2017-07-05T10:26:12.639Z,979.5
2017-07-05T10:27:14.029Z,979.4
2017-07-05T10:28:15.483Z,979.4
2017-07-05T10:29:16.977Z,979.4
2017-07-05T10:30:18.909Z,979.4
2017-07-05T10:31:20.288Z,979.4
2017-07-05T10:32:21.661Z,979.4
2017-07-05T10:33:23.043Z,979.4
2017-07-05T10:34:24.556Z,979.5
2017-07-05T10:35:25.923Z,979.5
2017-07-05T10:36:27.299Z,979.5
2017-07-05T10:37:28.779Z,979.5
2017-07-05T10:38:30.039Z,979.5
2017-07-05T10:39:31.458Z,979.6
2017-07-05T10:40:32.893Z,979.5
2017-07-05T10:41:34.243Z,979.5
2017-07-05T10:42:35.631Z,979.5
2017-07-05T10:43:37.030Z,979.5
2017-07-05T10:44:38.403Z,979.4
2017-07-05T10:45:39.855Z,979.5
2017-07-05T10:46:41.279Z,979.5
2017-07-05T10:47:42.660Z,979.5
2017-07-05T10:48:44.059Z,979.5
2017-07-05T10:49:45.444Z,979.4
2017-07-05T10:50:46.827Z,979.4
2017-07-05T10:51:48.217Z,979.4
2017-07-05T10:52:49.603Z,979.4
2017-07-05T10:53:50.986Z,979.4
2017-07-05T10:54:52.351Z,979.4
2017-07-05T10:55:53.737Z,979.3
2017-07-05T10:56:55.114Z,979.4
2017-07-05T10:57:56.502Z,979.4
2017-07-05T10:58:57.878Z,979.3
2017-07-05T10:59:59.255Z,979.4
2017-07-05T11:01:00.625Z,979.4
2017-07-05T11:02:02.045Z,979.4
2017-07-05T11:03:03.413Z,979.4
2017-07-05T11:04:04.783Z,979.4
2017-07-05T11:05:06.163Z,979.4
2017-07-05T11:06:07.542Z,979.4
2017-07-05T11:07:08.907Z,979.4
2017-07-05T11:08:10.271Z,979.4
2017-07-05T11:09:11.670Z,979.4
2017-07-05T11:10:13.053Z,979.4
2017-07-05T11:11:14.431Z,979.4
2017-07-05T11:12:15.807Z,979.3
2017-07-05T11:13:17.186Z,979.4
2017-07-05T11:14:18.565Z,979.4
2017-07-05T11:15:19.963Z,979.4
2017-07-05T11:16:21.348Z,979.4
2017-07-05T11:17:22.752Z,979.3
2017-07-05T11:18:24.118Z,979.3
2017-07-05T11:19:25.505Z,979.3
2017-07-05T11:20:26.889Z,979.3
2017-07-05T11:21:28.242Z,979.3
2017-07-05T11:22:29.623Z,979.3
2017-07-05T11:23:30.997Z,979.3
2017-07-05T11:24:32.368Z,979.3
2017-07-05T11:25:33.755Z,979.3
2017-07-05T11:26:35.146Z,979.3
2017-07-05T11:27:36.532Z,979.3
2017-07-05T11:28:37.917Z,979.3
2017-07-05T11:29:39.304Z,979.3
2017-07-05T11:30:40.679Z,979.2
2017-07-05T11:31:42.054Z,979.3
2017-07-05T11:32:43.443Z,979.2
2017-07-05T11:33:44.832Z,979.2
2017-07-05T11:34:46.211Z,979.2
2017-07-05T11:35:47.581Z,979.2
2017-07-05T11:36:48.963Z,979.2
2017-07-05T11:37:50.333Z,979.3
2017-07-05T11:38:51.720Z,979.2
2017-07-05T11:39:53.087Z,979.2
2017-07-05T11:40:54.510Z,979.2
2017-07-05T11:41:55.884Z,979.2
2017-07-05T11:42:57.274Z,979.2
2017-07-05T11:43:58.644Z,979.2
2017-07-05T11:45:00.154Z,979.1
2017-07-05T11:46:01.656Z,979.2
2017-07-05T11:47:03.011Z,979.2
2017-07-05T11:48:04.400Z,979.2
2017-07-05T11:49:05.776Z,979.2
2017-07-05T11:50:07.180Z,979.1
2017-07-05T11:51:08.570Z,979.1
2017-07-05T11:52:09.944Z,979.1
2017-07-05T11:53:11.332Z,979.1
2017-07-05T11:54:12.704Z,979.1
2017-07-05T11:55:14.084Z,979.1
2017-07-05T11:56:15.462Z,979.1
2017-07-05T11:57:16.845Z,979.0
2017-07-05T11:58:18.225Z,979.1
2017-07-05T11:59:19.603Z,979.1
2017-07-05T12:00:20.969Z,979.0
2017-07-05T12:01:22.342Z,979.1
2017-07-05T12:02:23.734Z,979.0
2017-07-05T12:03:25.106Z,979.0
2017-07-05T12:04:26.473Z,979.1
2017-07-05T12:05:27.851Z,979.0
2017-07-05T12:06:29.234Z,979.1
2017-07-05T12:07:30.818Z,979.1
2017-07-05T12:08:32.188Z,979.1
2017-07-05T12:09:33.555Z,979.0
2017-07-05T12:10:34.952Z,979.1
2017-07-05T12:11:36.397Z,979.0
2017-07-05T12:12:37.837Z,979.0
2017-07-05T12:13:39.233Z,979.1
2017-07-05T12:14:40.600Z,979.1
2017-07-05T12:15:41.985Z,979.1
2017-07-05T12:16:43.357Z,979.1
2017-07-05T12:17:44.750Z,979.1
2017-07-05T12:18:46.152Z,979.0
2017-07-05T12:19:47.517Z,979.0
2017-07-05T12:20:48.892Z,979.0
2017-07-05T12:21:50.276Z,979.0
2017-07-05T12:22:51.686Z,979.0
2017-07-05T12:23:53.084Z,979.0
2017-07-05T12:24:54.460Z,979.0
2017-07-05T12:25:55.831Z,979.0
2017-07-05T12:26:57.250Z,979.1
2017-07-05T12:27:58.630Z,979.1
2017-07-05T12:29:00.014Z,979.0
2017-07-05T12:30:01.451Z,979.0
2017-07-05T12:31:02.830Z,979.0
2017-07-05T12:32:04.256Z,979.0
2017-07-05T12:33:05.630Z,979.0
2017-07-05T12:34:07.004Z,978.9
2017-07-05T12:35:08.394Z,978.9
2017-07-05T12:36:09.768Z,978.9
2017-07-05T12:37:11.131Z,978.9
2017-07-05T12:38:12.502Z,978.9
2017-07-05T12:39:13.883Z,978.9
2017-07-05T12:40:15.323Z,978.9
2017-07-05T12:41:16.693Z,978.9
2017-07-05T12:42:18.073Z,978.9
2017-07-05T12:43:19.488Z,978.8
2017-07-05T12:44:20.875Z,978.9
2017-07-05T12:45:22.250Z,978.9
2017-07-05T12:46:23.631Z,978.9
2017-07-05T12:47:25.127Z,978.9
2017-07-05T12:48:26.521Z,978.9
2017-07-05T12:49:27.928Z,978.8
2017-07-05T12:50:29.295Z,978.9
2017-07-05T12:51:30.720Z,978.9
2017-07-05T12:52:32.096Z,978.9
2017-07-05T12:53:33.471Z,978.9
2017-07-05T12:54:34.835Z,978.9
2017-07-05T12:55:36.210Z,978.8
2017-07-05T12:56:37.582Z,978.9
2017-07-05T12:57:38.951Z,978.9
2017-07-05T12:58:40.341Z,978.9
2017-07-05T12:59:41.750Z,978.9
2017-07-05T13:00:43.155Z,978.8
2017-07-05T13:01:44.547Z,978.8
2017-07-05T13:02:45.925Z,978.8
2017-07-05T13:03:47.339Z,978.8
2017-07-05T13:04:48.732Z,978.8
2017-07-05T13:05:50.105Z,978.8
2017-07-05T13:06:51.474Z,978.8
2017-07-05T13:07:52.860Z,978.8
2017-07-05T13:08:54.232Z,978.8
2017-07-05T13:09:55.639Z,978.8
2017-07-05T13:10:57.008Z,978.8